| time (UTC) | temp C | wind direction | speed KPH | gust KPH | rain 1hr cm | rain 24hr cm | rain mn cm | humidity % | barometer mb |
| 20260507051012 | 10 | 0 | 0.0 | 0.0 | 0.41 | 1.14 | 0.43 | 87 | 1011.6 |
| 20260507050517 | 10 | 0 | 0.0 | 0.0 | 0.41 | 1.12 | 0.41 | 87 | 1011.7 |
| 20260507050042 | 11 | 0 | 0.0 | 0.0 | 0.38 | 1.09 | 0.38 | 87 | 1011.5 |
| 20260507045513 | 11 | 0 | 0.0 | 0.0 | 0.36 | 1.04 | 0.33 | 87 | 1011.7 |
| 20260507045012 | 11 | 0 | 0.0 | 0.0 | 0.30 | 0.97 | 0.25 | 87 | 1011.7 |
| 20260507044529 | 11 | 0 | 0.0 | 0.0 | 0.30 | 0.94 | 0.23 | 87 | 1011.6 |
| 20260507044013 | 11 | 0 | 0.0 | 0.0 | 0.25 | 0.89 | 0.18 | 88 | 1011.6 |
| 20260507043513 | 11 | 0 | 0.0 | 0.0 | 0.18 | 0.79 | 0.08 | 87 | 1011.5 |
| 20260507043030 | 11 | 0 | 0.0 | 0.0 | 0.20 | 0.79 | 0.08 | 87 | 1011.1 |
| 20260507042513 | 11 | 0 | 0.0 | 0.0 | 0.20 | 0.79 | 0.08 | 87 | 1011.1 |
| 20260507042012 | 11 | 0 | 0.0 | 0.0 | 0.20 | 0.79 | 0.08 | 86 | 1011.3 |
| 20260507041528 | 11 | 0 | 0.0 | 0.0 | 0.20 | 0.79 | 0.08 | 85 | 1011.1 |
| 20260507041013 | 11 | 0 | 0.0 | 0.0 | 0.15 | 0.74 | 0.03 | 85 | 1011.1 |
| 20260507040513 | 12 | 0 | 0.0 | 0.0 | 0.13 | 0.71 | 0.00 | 84 | 1010.9 |
| 20260507040031 | 12 | 0 | 0.0 | 0.0 | 0.13 | 0.71 | 0.00 | 83 | 1010.9 |
| 20260507035512 | 12 | 0 | 0.0 | 0.0 | 0.10 | 0.69 | 0.69 | 83 | 1010.7 |
| 20260507035013 | 12 | 0 | 0.0 | 0.0 | 0.08 | 0.66 | 0.66 | 83 | 1011.0 |
| 20260507034531 | 12 | 0 | 0.0 | 0.0 | 0.05 | 0.64 | 0.64 | 82 | 1010.7 |
| 20260507034012 | 12 | 0 | 0.0 | 0.0 | 0.05 | 0.64 | 0.64 | 82 | 1010.9 |
| 20260507033513 | 12 | 0 | 0.0 | 0.0 | 0.03 | 0.61 | 0.61 | 81 | 1010.9 |
| 20260507033028 | 12 | 0 | 0.0 | 0.0 | 0.00 | 0.58 | 0.58 | 80 | 1010.8 |
| 20260507032513 | 12 | 0 | 0.0 | 0.0 | 0.00 | 0.58 | 0.58 | 80 | 1010.7 |
| 20260507032012 | 13 | 0 | 0.0 | 0.0 | 0.00 | 0.58 | 0.58 | 79 | 1010.3 |
| 20260507031529 | 13 | 0 | 0.0 | 0.0 | 0.00 | 0.58 | 0.58 | 80 | 1010.6 |
| 20260507031015 | 13 | 0 | 0.0 | 0.0 | 0.00 | 0.58 | 0.58 | 80 | 1010.7 |
| 20260507030513 | 13 | 0 | 0.0 | 0.0 | 0.00 | 0.58 | 0.58 | 80 | 1010.8 |
| 20260507030031 | 13 | 0 | 0.0 | 0.0 | 0.00 | 0.58 | 0.58 | 81 | 1010.8 |
| 20260507025512 | 13 | 0 | 0.0 | 0.0 | 0.00 | 0.58 | 0.58 | 80 | 1010.3 |
| 20260507025013 | 13 | 0 | 0.0 | 0.0 | 0.00 | 0.58 | 0.58 | 81 | 1010.5 |
| 20260507024535 | 13 | 0 | 0.0 | 0.0 | 0.00 | 0.58 | 0.58 | 81 | 1010.7 |
| 20260507024012 | 13 | 0 | 0.0 | 0.0 | 0.00 | 0.58 | 0.58 | 80 | 1010.4 |
| 20260507023515 | 13 | 0 | 0.0 | 0.0 | 0.00 | 0.58 | 0.58 | 83 | 1010.6 |
| 20260507023028 | 13 | 0 | 0.0 | 0.0 | 0.00 | 0.58 | 0.58 | 82 | 1010.3 |
| 20260507022512 | 13 | 0 | 0.0 | 0.0 | 0.00 | 0.58 | 0.58 | 83 | 1010.4 |
| 20260507022013 | 13 | 0 | 0.0 | 0.0 | 0.00 | 0.58 | 0.58 | 82 | 1010.2 |
| 20260507021535 | 13 | 0 | 0.0 | 0.0 | 0.03 | 0.58 | 0.58 | 82 | 1010.3 |
| 20260507021012 | 13 | 0 | 0.0 | 0.0 | 0.03 | 0.58 | 0.58 | 82 | 1010.3 |
| 20260507020512 | 13 | 0 | 0.0 | 0.0 | 0.03 | 0.58 | 0.58 | 83 | 1010.3 |
| 20260507020030 | 13 | 0 | 0.0 | 0.0 | 0.03 | 0.58 | 0.58 | 84 | 1010.5 |
| 20260507015512 | 13 | 0 | 0.0 | 0.0 | 0.03 | 0.58 | 0.58 | 85 | 1010.4 |
| 20260507015015 | 13 | 0 | 0.0 | 0.0 | 0.03 | 0.58 | 0.58 | 84 | 1010.6 |
| 20260507014536 | 13 | 0 | 0.0 | 0.0 | 0.03 | 0.58 | 0.58 | 84 | 1010.6 |
| 20260507014012 | 13 | 0 | 0.0 | 0.0 | 0.03 | 0.58 | 0.58 | 84 | 1010.6 |
| 20260507013511 | 14 | 0 | 0.0 | 0.0 | 0.03 | 0.58 | 0.58 | 84 | 1010.6 |
| 20260507013033 | 14 | 0 | 0.0 | 0.0 | 0.03 | 0.58 | 0.58 | 84 | 1010.6 |
| 20260507012512 | 14 | 0 | 0.0 | 0.0 | 0.03 | 0.58 | 0.58 | 83 | 1010.6 |
| 20260507012014 | 14 | 0 | 0.0 | 0.0 | 0.03 | 0.58 | 0.58 | 82 | 1010.8 |
| 20260507011533 | 15 | 0 | 0.0 | 0.0 | 0.00 | 0.56 | 0.56 | 82 | 1010.8 |
| 20260507011011 | 15 | 0 | 0.0 | 0.0 | 0.00 | 0.56 | 0.56 | 83 | 1010.6 |
| 20260507010515 | 15 | 0 | 0.0 | 0.0 | 0.00 | 0.56 | 0.56 | 83 | 1010.4 |
| 20260507010040 | 15 | 0 | 0.0 | 0.0 | 0.00 | 0.56 | 0.56 | 83 | 1010.4 |
| 20260507005513 | 15 | 0 | 0.0 | 0.0 | 0.00 | 0.56 | 0.56 | 85 | 1010.6 |
| 20260507005017 | 15 | 0 | 0.0 | 0.0 | 0.00 | 0.56 | 0.56 | 85 | 1010.4 |
| 20260507004529 | 15 | 0 | 0.0 | 0.0 | 0.00 | 0.56 | 0.56 | 85 | 1010.2 |
| 20260507004012 | 16 | 0 | 0.0 | 0.0 | 0.00 | 0.56 | 0.56 | 84 | 1009.9 |
| 20260507003514 | 16 | 0 | 0.0 | 0.0 | 0.00 | 0.56 | 0.56 | 83 | 1010.0 |
| 20260507003029 | 16 | 0 | 0.0 | 0.0 | 0.00 | 0.56 | 0.56 | 83 | 1009.9 |
| 20260507002514 | 16 | 0 | 0.0 | 0.0 | 0.00 | 0.56 | 0.56 | 83 | 1010.1 |
| 20260507002013 | 16 | 0 | 0.0 | 0.0 | 0.00 | 0.56 | 0.56 | 83 | 1010.1 |
| 20260507001544 | 16 | 0 | 0.0 | 0.0 | 0.00 | 0.56 | 0.56 | 83 | 1009.7 |
| 20260507001011 | 16 | 0 | 0.0 | 0.0 | 0.00 | 0.56 | 0.56 | 84 | 1009.4 |
| 20260507000512 | 16 | 0 | 0.0 | 0.0 | 0.00 | 0.56 | 0.56 | 85 | 1009.4 |
| 20260507000032 | 16 | 0 | 0.0 | 0.0 | 0.00 | 0.56 | 0.56 | 85 | 1009.2 |
| 20260506235512 | 17 | 0 | 0.0 | 0.0 | 0.00 | 0.56 | 0.56 | 86 | 1009.0 |
| 20260506235012 | 17 | 0 | 0.0 | 0.0 | 0.03 | 0.56 | 0.56 | 86 | 1008.9 |
| 20260506234529 | 17 | 0 | 0.0 | 0.0 | 0.03 | 0.56 | 0.56 | 86 | 1008.8 |
| 20260506234012 | 17 | 0 | 0.0 | 0.0 | 0.03 | 0.56 | 0.56 | 86 | 1008.7 |
| 20260506233512 | 17 | 0 | 0.0 | 0.0 | 0.03 | 0.56 | 0.56 | 86 | 1008.6 |
| 20260506233030 | 17 | 0 | 0.0 | 0.0 | 0.03 | 0.56 | 0.56 | 86 | 1008.5 |
| 20260506232512 | 17 | 0 | 0.0 | 0.0 | 0.03 | 0.56 | 0.56 | 86 | 1008.5 |
| 20260506232012 | 17 | 0 | 0.0 | 0.0 | 0.03 | 0.56 | 0.56 | 85 | 1008.5 |
| 20260506231534 | 17 | 0 | 0.0 | 0.0 | 0.03 | 0.56 | 0.56 | 85 | 1008.7 |
| 20260506231012 | 17 | 0 | 0.0 | 0.0 | 0.03 | 0.56 | 0.56 | 85 | 1008.7 |
| 20260506230511 | 17 | 0 | 0.0 | 0.0 | 0.03 | 0.56 | 0.56 | 85 | 1008.5 |
| 20260506230031 | 17 | 0 | 0.0 | 0.0 | 0.03 | 0.56 | 0.56 | 84 | 1008.6 |
| 20260506225512 | 17 | 0 | 0.0 | 0.0 | 0.03 | 0.56 | 0.56 | 84 | 1008.6 |
| 20260506225012 | 17 | 0 | 0.0 | 0.0 | 0.00 | 0.53 | 0.53 | 83 | 1008.6 |
| 20260506224529 | 18 | 0 | 0.0 | 0.0 | 0.00 | 0.53 | 0.53 | 82 | 1008.6 |
| 20260506224011 | 18 | 0 | 0.0 | 0.0 | 0.00 | 0.53 | 0.53 | 82 | 1008.4 |
| 20260506223511 | 18 | 0 | 0.0 | 0.0 | 0.00 | 0.53 | 0.53 | 81 | 1008.3 |
| 20260506223030 | 18 | 0 | 0.0 | 0.0 | 0.00 | 0.53 | 0.53 | 81 | 1008.4 |
| 20260506222512 | 18 | 0 | 0.0 | 0.0 | 0.00 | 0.53 | 0.53 | 80 | 1008.2 |
| 20260506222017 | 18 | 0 | 0.0 | 0.0 | 0.00 | 0.53 | 0.53 | 80 | 1008.1 |
| 20260506221530 | 18 | 0 | 0.0 | 0.0 | 0.00 | 0.53 | 0.53 | 80 | 1008.4 |
| 20260506221017 | 18 | 0 | 0.0 | 0.0 | 0.00 | 0.53 | 0.53 | 79 | 1008.2 |
| 20260506220513 | 18 | 0 | 0.0 | 0.0 | 0.00 | 0.53 | 0.53 | 79 | 1008.3 |
| 20260506220031 | 18 | 0 | 0.0 | 0.0 | 0.00 | 0.53 | 0.53 | 79 | 1008.2 |
| 20260506215509 | 18 | 0 | 0.0 | 0.0 | 0.00 | 0.53 | 0.53 | 79 | 1008.2 |
| 20260506215012 | 18 | 0 | 0.0 | 0.0 | 0.00 | 0.53 | 0.53 | 79 | 1008.1 |
| 20260506214531 | 18 | 0 | 0.0 | 0.0 | 0.00 | 0.53 | 0.53 | 80 | 1007.8 |
| 20260506214012 | 18 | 0 | 0.0 | 0.0 | 0.00 | 0.53 | 0.53 | 80 | 1007.8 |
| 20260506213514 | 18 | 0 | 0.0 | 0.0 | 0.00 | 0.53 | 0.53 | 80 | 1007.8 |
| 20260506213040 | 18 | 0 | 0.0 | 0.0 | 0.00 | 0.53 | 0.53 | 80 | 1007.8 |
| 20260506212512 | 18 | 0 | 0.0 | 0.0 | 0.00 | 0.53 | 0.53 | 80 | 1007.8 |
| 20260506212013 | 18 | 0 | 0.0 | 0.0 | 0.00 | 0.53 | 0.53 | 79 | 1007.7 |
| 20260506211539 | 18 | 0 | 0.0 | 0.0 | 0.00 | 0.53 | 0.53 | 79 | 1007.9 |
| 20260506211013 | 18 | 0 | 0.0 | 0.0 | 0.00 | 0.53 | 0.53 | 78 | 1007.8 |
| 20260506210515 | 18 | 0 | 0.0 | 0.0 | 0.00 | 0.53 | 0.53 | 78 | 1007.6 |
| 20260506210039 | 18 | 0 | 0.0 | 0.0 | 0.00 | 0.53 | 0.53 | 78 | 1007.5 |
| 20260506205514 | 19 | 0 | 0.0 | 0.0 | 0.00 | 0.53 | 0.53 | 79 | 1007.4 |
| 20260506205013 | 19 | 0 | 0.0 | 0.0 | 0.00 | 0.53 | 0.53 | 79 | 1007.5 |
| 20260506204541 | 19 | 0 | 0.0 | 0.0 | 0.00 | 0.53 | 0.53 | 79 | 1007.4 |
| 20260506204013 | 19 | 0 | 0.0 | 0.0 | 0.00 | 0.53 | 0.53 | 78 | 1007.5 |
| 20260506203516 | 18 | 0 | 0.0 | 0.0 | 0.00 | 0.53 | 0.53 | 78 | 1007.5 |
| 20260506203029 | 18 | 0 | 0.0 | 0.0 | 0.00 | 0.53 | 0.53 | 79 | 1007.5 |
| 20260506202512 | 18 | 0 | 0.0 | 0.0 | 0.00 | 0.53 | 0.53 | 79 | 1007.5 |
| 20260506202012 | 18 | 0 | 0.0 | 0.0 | 0.00 | 0.53 | 0.53 | 79 | 1007.8 |
| 20260506201536 | 18 | 0 | 0.0 | 0.0 | 0.00 | 0.53 | 0.53 | 79 | 1007.8 |
| 20260506201013 | 18 | 0 | 0.0 | 0.0 | 0.00 | 0.53 | 0.53 | 79 | 1007.7 |
| 20260506200512 | 18 | 0 | 0.0 | 0.0 | 0.00 | 0.53 | 0.53 | 81 | 1007.7 |
| 20260506200032 | 18 | 0 | 0.0 | 0.0 | 0.00 | 0.53 | 0.53 | 81 | 1007.6 |
| 20260506195513 | 18 | 0 | 0.0 | 0.0 | 0.00 | 0.53 | 0.53 | 81 | 1007.6 |
| 20260506195016 | 18 | 0 | 0.0 | 0.0 | 0.00 | 0.53 | 0.53 | 81 | 1007.8 |
| 20260506194528 | 18 | 0 | 0.0 | 0.0 | 0.00 | 0.53 | 0.53 | 81 | 1007.8 |
| 20260506194012 | 18 | 0 | 0.0 | 0.0 | 0.00 | 0.53 | 0.53 | 81 | 1007.7 |
| 20260506193512 | 18 | 0 | 0.0 | 0.0 | 0.00 | 0.53 | 0.53 | 81 | 1007.8 |
| 20260506193042 | 17 | 0 | 0.0 | 0.0 | 0.00 | 0.53 | 0.53 | 81 | 1007.7 |
| 20260506192514 | 17 | 0 | 0.0 | 0.0 | 0.00 | 0.53 | 0.53 | 80 | 1007.8 |
| 20260506192013 | 18 | 0 | 0.0 | 0.0 | 0.00 | 0.53 | 0.53 | 81 | 1007.8 |
| 20260506191531 | 18 | 0 | 0.0 | 0.0 | 0.00 | 0.53 | 0.53 | 80 | 1007.8 |
| 20260506191012 | 18 | 0 | 0.0 | 0.0 | 0.00 | 0.53 | 0.53 | 79 | 1007.9 |
| 20260506190508 | 18 | 0 | 0.0 | 0.0 | 0.00 | 0.53 | 0.53 | 80 | 1007.8 |
| 20260506190028 | 18 | 0 | 0.0 | 0.0 | 0.00 | 0.53 | 0.53 | 81 | 1007.9 |
| 20260506185511 | 18 | 0 | 0.0 | 0.0 | 0.00 | 0.53 | 0.53 | 81 | 1007.8 |
| 20260506185009 | 18 | 0 | 0.0 | 0.0 | 0.00 | 0.53 | 0.53 | 81 | 1007.9 |
| 20260506184532 | 17 | 0 | 0.0 | 0.0 | 0.00 | 0.53 | 0.53 | 81 | 1007.9 |
| 20260506184012 | 17 | 0 | 0.0 | 0.0 | 0.00 | 0.53 | 0.53 | 80 | 1008.0 |
| 20260506183511 | 17 | 0 | 0.0 | 0.0 | 0.00 | 0.53 | 0.53 | 80 | 1008.0 |
| 20260506183029 | 17 | 0 | 0.0 | 0.0 | 0.00 | 0.53 | 0.53 | 81 | 1008.0 |
| 20260506182511 | 17 | 0 | 0.0 | 0.0 | 0.00 | 0.53 | 0.53 | 82 | 1008.0 |
| 20260506182017 | 17 | 0 | 0.0 | 0.0 | 0.00 | 0.53 | 0.53 | 84 | 1008.0 |
| 20260506181540 | 17 | 0 | 0.0 | 0.0 | 0.00 | 0.53 | 0.53 | 84 | 1008.1 |
| 20260506181009 | 17 | 0 | 0.0 | 0.0 | 0.00 | 0.53 | 0.53 | 85 | 1008.0 |
| 20260506180514 | 16 | 0 | 0.0 | 0.0 | 0.00 | 0.53 | 0.53 | 85 | 1008.1 |
| 20260506180030 | 16 | 0 | 0.0 | 0.0 | 0.00 | 0.53 | 0.53 | 85 | 1008.2 |
| 20260506175514 | 16 | 0 | 0.0 | 0.0 | 0.00 | 0.53 | 0.53 | 86 | 1008.1 |
| 20260506175012 | 16 | 0 | 0.0 | 0.0 | 0.00 | 0.53 | 0.53 | 87 | 1008.3 |
| 20260506174533 | 16 | 0 | 0.0 | 0.0 | 0.00 | 0.53 | 0.53 | 87 | 1008.3 |
| 20260506174040 | 16 | 0 | 0.0 | 0.0 | 0.00 | 0.53 | 0.53 | 87 | 1008.2 |
| 20260506173512 | 16 | 0 | 0.0 | 0.0 | 0.00 | 0.53 | 0.53 | 86 | 1008.2 |
| 20260506173050 | 16 | 0 | 0.0 | 0.0 | 0.00 | 0.53 | 0.53 | 87 | 1008.3 |
| 20260506172512 | 16 | 0 | 0.0 | 0.0 | 0.00 | 0.53 | 0.53 | 87 | 1008.2 |
| 20260506172012 | 16 | 0 | 0.0 | 0.0 | 0.00 | 0.53 | 0.53 | 87 | 1008.2 |
| 20260506171538 | 15 | 0 | 0.0 | 0.0 | 0.00 | 0.53 | 0.53 | 87 | 1008.3 |
| 20260506171011 | 15 | 0 | 0.0 | 0.0 | 0.00 | 0.53 | 0.53 | 87 | 1008.3 |
| 20260506170515 | 15 | 0 | 0.0 | 0.0 | 0.00 | 0.53 | 0.53 | 87 | 1008.4 |
| 20260506170038 | 15 | 0 | 0.0 | 0.0 | 0.00 | 0.53 | 0.53 | 87 | 1008.3 |
| 20260506165512 | 15 | 0 | 0.0 | 0.0 | 0.00 | 0.53 | 0.53 | 87 | 1008.3 |
| 20260506165009 | 16 | 0 | 0.0 | 0.0 | 0.00 | 0.53 | 0.53 | 88 | 1008.3 |
| 20260506164530 | 16 | 0 | 0.0 | 0.0 | 0.00 | 0.53 | 0.53 | 88 | 1008.3 |
| 20260506164010 | 16 | 0 | 0.0 | 0.0 | 0.00 | 0.53 | 0.53 | 88 | 1008.3 |
| 20260506163509 | 16 | 0 | 0.0 | 0.0 | 0.00 | 0.53 | 0.53 | 88 | 1008.3 |
| 20260506163033 | 16 | 0 | 0.0 | 0.0 | 0.00 | 0.53 | 0.53 | 88 | 1008.3 |
| 20260506162509 | 15 | 0 | 0.0 | 0.0 | 0.00 | 0.53 | 0.53 | 88 | 1008.3 |
| 20260506162015 | 16 | 0 | 0.0 | 0.0 | 0.03 | 0.53 | 0.53 | 88 | 1008.2 |
| 20260506161528 | 16 | 0 | 0.0 | 0.0 | 0.03 | 0.53 | 0.53 | 88 | 1008.3 |
| 20260506161013 | 15 | 0 | 0.0 | 0.0 | 0.03 | 0.53 | 0.53 | 88 | 1008.3 |
| 20260506160512 | 15 | 0 | 0.0 | 0.0 | 0.05 | 0.53 | 0.53 | 88 | 1008.5 |
| 20260506160028 | 15 | 0 | 0.0 | 0.0 | 0.08 | 0.53 | 0.53 | 88 | 1008.5 |
| 20260506155512 | 15 | 0 | 0.0 | 0.0 | 0.10 | 0.53 | 0.53 | 88 | 1008.4 |
| 20260506155012 | 15 | 0 | 0.0 | 0.0 | 0.15 | 0.53 | 0.53 | 88 | 1008.4 |
| 20260506154529 | 16 | 0 | 0.0 | 0.0 | 0.18 | 0.53 | 0.53 | 88 | 1008.6 |
| 20260506154014 | 16 | 0 | 0.0 | 0.0 | 0.20 | 0.53 | 0.53 | 89 | 1008.2 |
| 20260506153517 | 15 | 0 | 0.0 | 0.0 | 0.23 | 0.53 | 0.53 | 89 | 1008.3 |
| 20260506153030 | 15 | 0 | 0.0 | 0.0 | 0.25 | 0.53 | 0.53 | 89 | 1008.3 |
| 20260506152509 | 15 | 0 | 0.0 | 0.0 | 0.23 | 0.51 | 0.51 | 89 | 1008.0 |
| 20260506152011 | 15 | 0 | 0.0 | 0.0 | 0.25 | 0.51 | 0.51 | 88 | 1007.7 |
| 20260506151531 | 15 | 0 | 0.0 | 0.0 | 0.25 | 0.51 | 0.51 | 88 | 1008.1 |
| 20260506151011 | 15 | 0 | 0.0 | 0.0 | 0.23 | 0.48 | 0.48 | 88 | 1008.3 |
| 20260506150511 | 15 | 0 | 0.0 | 0.0 | 0.23 | 0.48 | 0.48 | 88 | 1008.6 |
| 20260506150030 | 15 | 0 | 0.0 | 0.0 | 0.23 | 0.46 | 0.46 | 88 | 1008.7 |
| 20260506145516 | 15 | 0 | 0.0 | 0.0 | 0.18 | 0.41 | 0.41 | 88 | 1008.9 |
| 20260506145013 | 15 | 0 | 0.0 | 0.0 | 0.18 | 0.38 | 0.38 | 87 | 1009.0 |
| 20260506144532 | 15 | 0 | 0.0 | 0.0 | 0.15 | 0.33 | 0.33 | 87 | 1009.1 |
| 20260506144011 | 15 | 0 | 0.0 | 0.0 | 0.13 | 0.30 | 0.30 | 87 | 1009.2 |
| 20260506143512 | 15 | 0 | 0.0 | 0.0 | 0.15 | 0.28 | 0.28 | 87 | 1009.1 |
| 20260506143032 | 15 | 0 | 0.0 | 0.0 | 0.15 | 0.28 | 0.28 | 86 | 1009.0 |
| 20260506142514 | 15 | 0 | 0.0 | 0.0 | 0.18 | 0.28 | 0.28 | 86 | 1009.0 |
| 20260506142013 | 15 | 0 | 0.0 | 0.0 | 0.15 | 0.25 | 0.25 | 86 | 1008.8 |
| 20260506141530 | 15 | 0 | 0.0 | 0.0 | 0.18 | 0.25 | 0.25 | 86 | 1009.0 |
| 20260506141014 | 15 | 0 | 0.0 | 0.0 | 0.18 | 0.25 | 0.25 | 87 | 1008.7 |
| 20260506140511 | 15 | 0 | 0.0 | 0.0 | 0.15 | 0.23 | 0.23 | 87 | 1008.7 |
| 20260506140034 | 15 | 0 | 0.0 | 0.0 | 0.15 | 0.23 | 0.23 | 86 | 1008.7 |
| 20260506135511 | 15 | 0 | 0.0 | 0.0 | 0.15 | 0.23 | 0.23 | 86 | 1008.6 |
| 20260506135012 | 15 | 0 | 0.0 | 0.0 | 0.15 | 0.20 | 0.20 | 86 | 1008.5 |
| 20260506134529 | 15 | 0 | 0.0 | 0.0 | 0.13 | 0.18 | 0.18 | 85 | 1008.6 |
| 20260506134011 | 15 | 0 | 0.0 | 0.0 | 0.10 | 0.15 | 0.15 | 84 | 1008.5 |
| 20260506133513 | 16 | 0 | 0.0 | 0.0 | 0.10 | 0.13 | 0.13 | 84 | 1008.7 |
| 20260506133036 | 16 | 0 | 0.0 | 0.0 | 0.10 | 0.13 | 0.13 | 83 | 1008.6 |
| 20260506132514 | 16 | 0 | 0.0 | 0.0 | 0.08 | 0.10 | 0.10 | 83 | 1008.7 |
| 20260506132012 | 16 | 0 | 0.0 | 0.0 | 0.05 | 0.08 | 0.08 | 83 | 1008.7 |
| 20260506131528 | 16 | 0 | 0.0 | 0.0 | 0.05 | 0.08 | 0.08 | 82 | 1008.8 |
| 20260506131013 | 16 | 0 | 0.0 | 0.0 | 0.05 | 0.08 | 0.08 | 82 | 1008.8 |
| 20260506130513 | 16 | 0 | 0.0 | 0.0 | 0.08 | 0.08 | 0.08 | 82 | 1008.8 |
| 20260506130032 | 16 | 0 | 0.0 | 0.0 | 0.08 | 0.08 | 0.08 | 81 | 1008.7 |
| 20260506125510 | 16 | 0 | 0.0 | 0.0 | 0.08 | 0.08 | 0.08 | 81 | 1008.8 |
| 20260506125013 | 16 | 0 | 0.0 | 0.0 | 0.05 | 0.05 | 0.05 | 80 | 1008.9 |
| 20260506124528 | 16 | 0 | 0.0 | 0.0 | 0.05 | 0.05 | 0.05 | 80 | 1008.8 |
| 20260506124011 | 16 | 0 | 0.0 | 0.0 | 0.05 | 0.05 | 0.05 | 79 | 1008.8 |
| 20260506123510 | 16 | 0 | 0.0 | 0.0 | 0.03 | 0.03 | 0.03 | 78 | 1008.9 |
| 20260506123030 | 16 | 0 | 0.0 | 0.0 | 0.03 | 0.03 | 0.03 | 78 | 1008.9 |
| 20260506122515 | 16 | 0 | 0.0 | 0.0 | 0.03 | 0.03 | 0.03 | 78 | 1009.1 |
| 20260506122016 | 16 | 0 | 0.0 | 0.0 | 0.03 | 0.03 | 0.03 | 77 | 1009.1 |
| 20260506121530 | 16 | 0 | 0.0 | 0.0 | 0.03 | 0.03 | 0.03 | 76 | 1009.2 |
| 20260506121012 | 16 | 0 | 0.0 | 0.0 | 0.00 | 0.00 | 0.00 | 76 | 1009.2 |
| 20260506120509 | 16 | 0 | 0.0 | 0.0 | 0.00 | 0.00 | 0.00 | 76 | 1009.3 |
| 20260506120029 | 17 | 0 | 0.0 | 0.0 | 0.00 | 0.00 | 0.00 | 75 | 1009.3 |
| 20260506115514 | 17 | 0 | 0.0 | 0.0 | 0.00 | 0.00 | 0.00 | 74 | 1009.1 |
| 20260506115009 | 17 | 0 | 0.0 | 0.0 | 0.00 | 0.00 | 0.00 | 74 | 1009.1 |
| 20260506114532 | 17 | 0 | 0.0 | 0.0 | 0.00 | 0.00 | 0.00 | 73 | 1009.1 |
| 20260506114012 | 17 | 0 | 0.0 | 0.0 | 0.00 | 0.00 | 0.00 | 72 | 1008.9 |
| 20260506113511 | 17 | 0 | 0.0 | 0.0 | 0.00 | 0.00 | 0.00 | 71 | 1008.9 |
| 20260506113028 | 17 | 0 | 0.0 | 0.0 | 0.00 | 0.00 | 0.00 | 69 | 1008.7 |
| 20260506112810 | 18 | 0 | 0.0 | 0.0 | 0.00 | 0.00 | 0.00 | 68 | 1008.7 |
| 20260506112013 | 18 | 0 | 0.0 | 0.0 | 0.00 | 0.00 | 0.00 | 68 | 1008.5 |
| 20260506111528 | 18 | 0 | 0.0 | 0.0 | 0.00 | 0.00 | 0.00 | 68 | 1008.6 |
| 20260506111008 | 18 | 0 | 0.0 | 0.0 | 0.00 | 0.00 | 0.00 | 68 | 1008.5 |
| 20260506110514 | 18 | 0 | 0.0 | 0.0 | 0.00 | 0.00 | 0.00 | 67 | 1008.7 |
| 20260506110027 | 18 | 0 | 0.0 | 0.0 | 0.00 | 0.00 | 0.00 | 66 | 1008.5 |
| 20260506105509 | 18 | 0 | 0.0 | 0.0 | 0.00 | 0.00 | 0.00 | 65 | 1008.3 |
| 20260506105008 | 18 | 0 | 0.0 | 0.0 | 0.00 | 0.00 | 0.00 | 64 | 1008.3 |
| 20260506104554 | 18 | 0 | 0.0 | 0.0 | 0.00 | 0.00 | 0.00 | 64 | 1008.1 |
| 20260506104010 | 18 | 0 | 0.0 | 0.0 | 0.00 | 0.00 | 0.00 | 64 | 1008.2 |
| 20260506103511 | 18 | 0 | 0.0 | 0.0 | 0.00 | 0.00 | 0.00 | 64 | 1008.0 |
| 20260506103028 | 18 | 0 | 0.0 | 0.0 | 0.00 | 0.00 | 0.00 | 64 | 1008.1 |
| 20260506102513 | 18 | 0 | 0.0 | 0.0 | 0.00 | 0.00 | 0.00 | 64 | 1008.2 |
| 20260506102012 | 18 | 0 | 0.0 | 0.0 | 0.00 | 0.00 | 0.00 | 64 | 1008.3 |
| 20260506101529 | 18 | 0 | 0.0 | 0.0 | 0.00 | 0.00 | 0.00 | 63 | 1008.1 |
| 20260506101010 | 18 | 0 | 0.0 | 0.0 | 0.00 | 0.00 | 0.00 | 63 | 1008.0 |
| 20260506100508 | 18 | 0 | 0.0 | 0.0 | 0.00 | 0.00 | 0.00 | 63 | 1008.1 |
| 20260506100039 | 18 | 0 | 0.0 | 0.0 | 0.00 | 0.00 | 0.00 | 62 | 1008.1 |
| 20260506095512 | 18 | 0 | 0.0 | 0.0 | 0.00 | 0.00 | 0.00 | 62 | 1008.0 |
| 20260506095011 | 18 | 0 | 0.0 | 0.0 | 0.00 | 0.00 | 0.00 | 63 | 1008.0 |
| 20260506094534 | 18 | 0 | 0.0 | 0.0 | 0.00 | 0.00 | 0.00 | 63 | 1008.1 |
| 20260506094016 | 18 | 0 | 0.0 | 0.0 | 0.00 | 0.00 | 0.00 | 62 | 1008.0 |
| 20260506093514 | 18 | 0 | 0.0 | 0.0 | 0.00 | 0.00 | 0.00 | 61 | 1007.9 |
| 20260506093032 | 18 | 0 | 0.0 | 0.0 | 0.00 | 0.00 | 0.00 | 62 | 1007.9 |
| 20260506092511 | 18 | 0 | 0.0 | 0.0 | 0.00 | 0.00 | 0.00 | 61 | 1008.0 |
| 20260506092011 | 18 | 0 | 0.0 | 0.0 | 0.00 | 0.00 | 0.00 | 61 | 1007.9 |
| 20260506091529 | 18 | 0 | 0.0 | 0.0 | 0.00 | 0.00 | 0.00 | 61 | 1008.0 |
| 20260506091011 | 18 | 0 | 0.0 | 0.0 | 0.00 | 0.00 | 0.00 | 61 | 1008.1 |
| 20260506090513 | 19 | 0 | 0.0 | 0.0 | 0.00 | 0.00 | 0.00 | 61 | 1008.2 |
| 20260506090035 | 19 | 0 | 0.0 | 0.0 | 0.00 | 0.00 | 0.00 | 61 | 1008.3 |
| 20260506085511 | 19 | 0 | 0.0 | 0.0 | 0.00 | 0.00 | 0.00 | 60 | 1008.4 |
| 20260506085011 | 19 | 0 | 0.0 | 0.0 | 0.00 | 0.00 | 0.00 | 60 | 1008.3 |
| 20260506084531 | 19 | 0 | 0.0 | 0.0 | 0.00 | 0.00 | 0.00 | 60 | 1008.4 |
| 20260506084017 | 19 | 0 | 0.0 | 0.0 | 0.00 | 0.00 | 0.00 | 60 | 1008.3 |
| 20260506083511 | 19 | 0 | 0.0 | 0.0 | 0.00 | 0.00 | 0.00 | 60 | 1008.3 |
| 20260506083037 | 19 | 0 | 0.0 | 0.0 | 0.00 | 0.00 | 0.00 | 60 | 1008.2 |
| 20260506082509 | 19 | 0 | 0.0 | 0.0 | 0.00 | 0.00 | 0.00 | 59 | 1008.3 |
| 20260506082011 | 19 | 0 | 0.0 | 0.0 | 0.00 | 0.00 | 0.00 | 59 | 1008.3 |
| 20260506081528 | 19 | 0 | 0.0 | 0.0 | 0.00 | 0.00 | 0.00 | 59 | 1008.3 |
| 20260506081012 | 19 | 0 | 0.0 | 0.0 | 0.00 | 0.00 | 0.00 | 58 | 1008.3 |
| 20260506080509 | 20 | 0 | 0.0 | 0.0 | 0.00 | 0.00 | 0.00 | 58 | 1008.2 |
| 20260506073515 | 20 | 0 | 0.0 | 0.0 | 0.00 | 0.00 | 0.00 | 56 | 1008.4 |
| 20260506073030 | 20 | 0 | 0.0 | 0.0 | 0.00 | 0.00 | 0.00 | 57 | 1008.5 |
| 20260506072512 | 20 | 0 | 0.0 | 0.0 | 0.00 | 0.00 | 0.00 | 56 | 1008.4 |
| 20260506072017 | 20 | 0 | 0.0 | 0.0 | 0.00 | 0.00 | 0.00 | 56 | 1008.5 |
| 20260506071528 | 20 | 0 | 0.0 | 0.0 | 0.00 | 0.00 | 0.00 | 56 | 1008.6 |
| 20260506071011 | 20 | 0 | 0.0 | 0.0 | 0.00 | 0.00 | 0.00 | 56 | 1008.6 |
| 20260506070511 | 20 | 0 | 0.0 | 0.0 | 0.00 | 0.00 | 0.00 | 56 | 1008.5 |
| 20260506062011 | 20 | 0 | 0.0 | 0.0 | 0.00 | 0.00 | 0.00 | 54 | 1009.0 |
| 20260506061530 | 20 | 0 | 0.0 | 0.0 | 0.00 | 0.00 | 0.00 | 54 | 1009.0 |
| 20260506061016 | 20 | 0 | 0.0 | 0.0 | 0.00 | 0.00 | 0.00 | 54 | 1009.1 |
| 20260506060514 | 20 | 0 | 0.0 | 0.0 | 0.00 | 0.00 | 0.00 | 54 | 1009.1 |